createdAt,value
2022-09-28T00:01:25.473Z,13.80
2022-09-28T00:03:53.430Z,13.80
2022-09-28T00:06:21.638Z,13.80
2022-09-28T00:08:52.492Z,13.70
2022-09-28T00:11:20.822Z,13.70
2022-09-28T00:13:56.527Z,13.70
2022-09-28T00:16:24.571Z,13.70
2022-09-28T00:18:51.590Z,13.70
2022-09-28T00:21:22.290Z,13.70
2022-09-28T00:24:09.768Z,13.70
2022-09-28T00:26:36.362Z,13.70
2022-09-28T00:29:02.818Z,13.60
2022-09-28T00:31:31.761Z,13.60
2022-09-28T00:34:00.178Z,13.60
2022-09-28T00:36:28.187Z,13.60
2022-09-28T00:38:56.509Z,13.60
2022-09-28T00:41:23.828Z,13.60
2022-09-28T00:43:50.382Z,13.60
2022-09-28T00:46:33.410Z,13.60
2022-09-28T00:49:04.944Z,13.60
2022-09-28T00:51:31.923Z,13.60
2022-09-28T00:53:59.489Z,13.60
2022-09-28T00:56:28.942Z,13.50
2022-09-28T00:58:55.907Z,13.50
2022-09-28T01:01:22.518Z,13.50
2022-09-28T01:03:49.096Z,13.50
2022-09-28T01:06:18.562Z,13.50
2022-09-28T01:08:45.981Z,13.50
2022-09-28T01:11:12.452Z,13.50
2022-09-28T01:13:40.388Z,13.50
2022-09-28T01:16:08.162Z,13.50
2022-09-28T01:18:40.699Z,13.50
2022-09-28T01:21:07.213Z,13.50
2022-09-28T01:23:54.468Z,13.50
2022-09-28T01:26:23.875Z,13.40
2022-09-28T01:28:54.437Z,13.40
2022-09-28T01:31:21.469Z,13.40
2022-09-28T01:34:08.147Z,13.40
2022-09-28T01:36:40.267Z,13.40
2022-09-28T01:39:10.852Z,13.40
2022-09-28T01:41:40.238Z,13.40
2022-09-28T01:44:09.058Z,13.40
2022-09-28T01:46:42.100Z,13.40
2022-09-28T01:49:10.734Z,13.40
2022-09-28T01:51:37.223Z,13.40
2022-09-28T01:54:09.231Z,13.40
2022-09-28T01:56:55.883Z,13.40
2022-09-28T01:59:24.914Z,13.40
2022-09-28T02:02:14.991Z,13.30
2022-09-28T02:04:50.991Z,13.40
2022-09-28T02:07:19.605Z,13.30
2022-09-28T02:09:48.613Z,13.30
2022-09-28T02:12:18.879Z,13.30
2022-09-28T02:14:48.009Z,13.30
2022-09-28T02:17:16.311Z,13.30
2022-09-28T02:19:43.100Z,13.30
2022-09-28T02:22:09.541Z,13.30
2022-09-28T02:24:38.216Z,13.30
2022-09-28T02:27:09.646Z,13.30
2022-09-28T02:29:36.120Z,13.30
2022-09-28T02:32:02.585Z,13.30
2022-09-28T02:34:29.079Z,13.20
2022-09-28T02:36:55.641Z,13.20
2022-09-28T02:39:22.467Z,13.20
2022-09-28T02:41:58.041Z,13.20
2022-09-28T02:44:35.198Z,13.20
2022-09-28T02:47:09.811Z,13.20
2022-09-28T02:49:39.898Z,13.20
2022-09-28T02:52:15.333Z,13.20
2022-09-28T02:54:57.029Z,13.20
2022-09-28T02:57:42.333Z,13.20
2022-09-28T03:00:12.061Z,13.20
2022-09-28T03:02:38.474Z,13.20
2022-09-28T03:05:11.199Z,13.10
2022-09-28T03:07:44.881Z,13.10
2022-09-28T03:10:11.423Z,13.10
2022-09-28T03:12:38.335Z,13.10
2022-09-28T03:15:13.318Z,13.10
2022-09-28T03:17:39.814Z,13.10
2022-09-28T03:20:06.693Z,13.10
2022-09-28T03:22:33.111Z,13.10
2022-09-28T03:24:59.548Z,13.10
2022-09-28T03:27:25.956Z,13.10
2022-09-28T03:29:52.363Z,13.00
2022-09-28T03:32:18.783Z,13.00
2022-09-28T03:34:45.233Z,13.00
2022-09-28T03:37:11.717Z,13.00
2022-09-28T03:39:38.149Z,13.00
2022-09-28T03:42:04.584Z,13.00
2022-09-28T03:44:31.107Z,13.00
2022-09-28T03:46:57.690Z,13.00
2022-09-28T03:49:24.280Z,13.00
2022-09-28T03:51:50.716Z,13.00
2022-09-28T03:54:17.205Z,13.00
2022-09-28T03:56:43.599Z,13.00
2022-09-28T03:59:10.155Z,13.00
2022-09-28T04:01:36.869Z,13.00
2022-09-28T04:04:03.423Z,12.90
2022-09-28T04:06:29.877Z,12.90
2022-09-28T04:08:56.319Z,12.90
2022-09-28T04:11:24.121Z,12.90
2022-09-28T04:13:50.669Z,12.90
2022-09-28T04:16:18.579Z,12.90
2022-09-28T04:18:45.116Z,12.90
2022-09-28T04:21:12.258Z,12.90
2022-09-28T04:23:39.675Z,12.90
2022-09-28T04:26:07.271Z,12.90
2022-09-28T04:28:52.065Z,12.90
2022-09-28T04:31:19.535Z,12.90
2022-09-28T04:33:46.569Z,12.90
2022-09-28T04:36:13.474Z,12.90
2022-09-28T04:38:56.031Z,12.90
2022-09-28T04:41:22.698Z,12.90
2022-09-28T04:43:50.090Z,12.80
2022-09-28T04:46:16.954Z,12.80
2022-09-28T04:48:43.495Z,12.80
2022-09-28T04:51:09.966Z,12.80
2022-09-28T04:53:36.714Z,12.80
2022-09-28T04:56:05.219Z,12.80
2022-09-28T04:58:31.728Z,12.80
2022-09-28T05:00:59.577Z,12.80
2022-09-28T05:03:26.431Z,12.80
2022-09-28T05:05:52.909Z,12.80
2022-09-28T05:08:19.382Z,12.80
2022-09-28T05:10:46.027Z,12.80
2022-09-28T05:13:12.996Z,12.70
2022-09-28T05:15:40.227Z,12.70
2022-09-28T05:18:07.333Z,12.70
2022-09-28T05:20:34.439Z,12.70
2022-09-28T05:23:00.918Z,12.70
2022-09-28T05:25:27.454Z,12.70
2022-09-28T05:27:57.357Z,12.70
2022-09-28T05:30:24.218Z,12.70
2022-09-28T05:32:51.110Z,12.70
2022-09-28T05:35:17.673Z,12.70
2022-09-28T05:37:44.195Z,12.60
2022-09-28T05:40:11.049Z,12.60
2022-09-28T05:42:37.489Z,12.60
2022-09-28T05:45:04.102Z,12.60
2022-09-28T05:47:30.529Z,12.60
2022-09-28T05:49:56.977Z,12.60
2022-09-28T05:52:23.430Z,12.60
2022-09-28T05:54:49.857Z,12.60
2022-09-28T05:57:16.347Z,12.60
2022-09-28T05:59:42.913Z,12.60
2022-09-28T06:02:10.211Z,12.60
2022-09-28T06:04:36.841Z,12.60
2022-09-28T06:07:03.285Z,12.50
2022-09-28T06:09:30.352Z,12.50
2022-09-28T06:11:58.211Z,12.50
2022-09-28T06:14:24.876Z,12.50
2022-09-28T06:16:51.508Z,12.50
2022-09-28T06:19:18.298Z,12.50
2022-09-28T06:21:44.712Z,12.50
2022-09-28T06:24:11.163Z,12.50
2022-09-28T06:26:37.841Z,12.50
2022-09-28T06:29:04.292Z,12.50
2022-09-28T06:31:31.319Z,12.40
2022-09-28T06:33:57.768Z,12.40
2022-09-28T06:36:24.272Z,12.40
2022-09-28T06:38:50.714Z,12.40
2022-09-28T06:41:17.163Z,12.40
2022-09-28T06:43:43.620Z,12.40
2022-09-28T06:46:10.275Z,12.40
2022-09-28T06:48:37.734Z,12.40
2022-09-28T06:51:04.667Z,12.40
2022-09-28T06:53:31.551Z,12.40
2022-09-28T06:55:58.122Z,12.40
2022-09-28T06:58:26.499Z,12.40
2022-09-28T07:00:53.250Z,12.40
2022-09-28T07:03:21.588Z,12.40
2022-09-28T07:05:52.640Z,12.40
2022-09-28T07:08:20.257Z,12.40
2022-09-28T07:10:48.119Z,12.50
2022-09-28T07:13:39.388Z,12.50
2022-09-28T07:16:01.928Z,12.50
2022-09-28T07:18:29.901Z,12.60
2022-09-28T07:20:59.960Z,12.70
2022-09-28T07:23:34.093Z,12.70
2022-09-28T07:26:06.591Z,12.70
2022-09-28T07:28:34.263Z,12.80
2022-09-28T07:31:03.478Z,12.90
2022-09-28T07:33:32.950Z,12.90
2022-09-28T07:36:00.843Z,13.00
2022-09-28T07:38:27.350Z,13.00
2022-09-28T07:41:12.261Z,13.10
2022-09-28T07:43:41.622Z,13.20
2022-09-28T07:46:11.966Z,13.20
2022-09-28T07:48:42.375Z,13.30
2022-09-28T07:51:09.270Z,13.30
2022-09-28T07:53:35.735Z,13.40
2022-09-28T07:56:09.700Z,13.60
2022-09-28T07:58:36.975Z,13.60
2022-09-28T08:01:05.205Z,13.70
2022-09-28T08:03:31.734Z,13.80
2022-09-28T08:05:58.962Z,13.90
2022-09-28T08:08:25.517Z,14.00
2022-09-28T08:10:53.161Z,14.10
2022-09-28T08:13:22.257Z,14.10
2022-09-28T08:15:51.828Z,14.20
2022-09-28T08:18:18.447Z,14.20
2022-09-28T08:21:03.678Z,14.40
2022-09-28T08:23:30.313Z,14.50
2022-09-28T08:25:56.807Z,14.60
2022-09-28T08:28:24.143Z,14.70
2022-09-28T08:30:50.836Z,14.70
2022-09-28T08:33:18.066Z,14.70
2022-09-28T08:35:45.999Z,14.70
2022-09-28T08:38:13.627Z,14.70
2022-09-28T08:40:58.856Z,14.70
2022-09-28T08:43:41.633Z,14.80
2022-09-28T08:46:09.922Z,14.90
2022-09-28T08:48:56.976Z,15.00
2022-09-28T08:51:42.379Z,14.90
2022-09-28T08:54:28.215Z,15.00
2022-09-28T08:56:59.184Z,15.30
2022-09-28T08:59:27.650Z,15.40
2022-09-28T09:02:14.428Z,15.50
2022-09-28T09:04:40.878Z,15.70
2022-09-28T09:07:07.368Z,15.70
2022-09-28T09:09:44.426Z,15.70
2022-09-28T09:12:20.115Z,15.80
2022-09-28T09:14:53.060Z,16.00
2022-09-28T09:17:38.806Z,16.00
2022-09-28T09:20:14.586Z,16.10
2022-09-28T09:22:48.080Z,16.20
2022-09-28T09:25:18.357Z,16.20
2022-09-28T09:27:54.845Z,16.30
2022-09-28T09:30:29.616Z,16.30
2022-09-28T09:33:00.552Z,16.50
2022-09-28T09:35:37.488Z,16.60
2022-09-28T09:38:09.450Z,16.30
2022-09-28T09:40:35.889Z,16.80
2022-09-28T09:43:02.295Z,16.90
2022-09-28T09:45:39.849Z,17.10
2022-09-28T09:48:27.504Z,17.20
2022-09-28T09:50:57.711Z,17.10
2022-09-28T09:53:24.202Z,17.00
2022-09-28T09:55:54.860Z,17.00
2022-09-28T09:58:25.117Z,17.00
2022-09-28T10:00:52.879Z,17.00
2022-09-28T10:03:28.227Z,17.00
2022-09-28T10:06:03.485Z,17.10
2022-09-28T10:08:33.441Z,17.10
2022-09-28T10:11:08.448Z,17.20
2022-09-28T10:13:35.398Z,16.90
2022-09-28T10:16:01.996Z,17.10
2022-09-28T10:18:28.627Z,17.00
2022-09-28T10:20:55.056Z,17.00
2022-09-28T10:23:23.926Z,17.00
2022-09-28T10:25:52.464Z,17.10
2022-09-28T10:28:21.462Z,17.00
2022-09-28T10:30:48.007Z,17.00
2022-09-28T10:33:29.325Z,17.00
2022-09-28T10:35:55.922Z,17.10
2022-09-28T10:38:22.983Z,17.10
2022-09-28T10:40:50.978Z,17.10
2022-09-28T10:43:20.640Z,17.10
2022-09-28T10:45:47.505Z,17.10
2022-09-28T10:48:16.785Z,17.10
2022-09-28T10:50:43.431Z,17.10
2022-09-28T10:53:20.537Z,17.30
2022-09-28T10:55:57.820Z,17.30
2022-09-28T10:58:26.527Z,17.30
2022-09-28T11:00:53.245Z,17.30
2022-09-28T11:03:24.156Z,17.40
2022-09-28T11:06:09.023Z,17.50
2022-09-28T11:08:40.383Z,17.50
2022-09-28T11:11:14.834Z,17.60
2022-09-28T11:13:49.009Z,17.70
2022-09-28T11:16:35.944Z,17.60
2022-09-28T11:19:06.842Z,17.80
2022-09-28T11:21:43.399Z,17.80
2022-09-28T11:24:19.127Z,17.80
2022-09-28T11:26:47.966Z,17.90
2022-09-28T11:29:26.890Z,17.80
2022-09-28T11:31:53.513Z,17.90
2022-09-28T11:34:36.546Z,17.90
2022-09-28T11:37:35.217Z,18.00
2022-09-28T11:40:13.618Z,18.10
2022-09-28T11:42:50.998Z,18.20
2022-09-28T11:45:43.552Z,18.20
2022-09-28T11:48:19.023Z,18.20
2022-09-28T11:50:50.469Z,18.30
2022-09-28T11:53:20.244Z,18.40
2022-09-28T11:56:00.120Z,18.30
2022-09-28T11:58:31.101Z,18.40
2022-09-28T12:01:07.105Z,18.40
2022-09-28T12:03:41.137Z,18.30
2022-09-28T12:06:11.548Z,18.30
2022-09-28T12:08:42.146Z,18.40
2022-09-28T12:11:15.810Z,18.40
2022-09-28T12:13:44.694Z,18.50
2022-09-28T12:17:08.975Z,18.50
2022-09-28T12:19:40.093Z,18.40
2022-09-28T12:22:18.219Z,18.40
2022-09-28T12:24:47.545Z,18.40
2022-09-28T12:27:16.930Z,18.40
2022-09-28T12:29:47.642Z,18.40
2022-09-28T12:32:35.690Z,18.50
2022-09-28T12:35:02.449Z,18.50
2022-09-28T12:37:51.462Z,18.50
2022-09-28T12:40:29.438Z,18.50
2022-09-28T12:43:04.375Z,18.60
2022-09-28T12:45:35.557Z,18.60
2022-09-28T12:48:15.826Z,18.60
2022-09-28T12:50:53.925Z,18.70
2022-09-28T12:53:35.619Z,18.70
2022-09-28T12:56:03.711Z,18.70
2022-09-28T12:58:50.639Z,18.70
2022-09-28T13:01:37.084Z,18.70
2022-09-28T13:04:22.558Z,18.80
2022-09-28T13:07:07.648Z,18.70
2022-09-28T13:09:52.463Z,18.80
2022-09-28T13:12:29.909Z,18.80
2022-09-28T13:15:08.805Z,18.80
2022-09-28T13:17:47.517Z,18.80
2022-09-28T13:20:23.323Z,18.80
2022-09-28T13:22:56.033Z,18.80
2022-09-28T13:25:25.432Z,18.70
2022-09-28T13:27:55.430Z,18.60
2022-09-28T13:30:22.130Z,18.60
2022-09-28T13:32:49.856Z,18.60
2022-09-28T13:35:20.958Z,18.60
2022-09-28T13:37:48.176Z,18.50
2022-09-28T13:40:14.898Z,18.50
2022-09-28T13:42:44.379Z,18.50
2022-09-28T13:45:10.791Z,18.40
2022-09-28T13:47:49.981Z,18.40
2022-09-28T13:50:26.046Z,18.40
2022-09-28T13:53:01.374Z,18.50
2022-09-28T13:55:28.267Z,18.50
2022-09-28T13:58:04.771Z,18.50
2022-09-28T14:00:47.110Z,18.50
2022-09-28T14:03:20.723Z,18.40
2022-09-28T14:05:52.110Z,18.40
2022-09-28T14:08:57.016Z,18.30
2022-09-28T14:11:37.621Z,18.10
2022-09-28T14:14:14.345Z,18.10
2022-09-28T14:16:41.949Z,17.90
2022-09-28T14:19:08.406Z,17.90
2022-09-28T14:21:44.037Z,17.90
2022-09-28T14:24:33.719Z,18.10
2022-09-28T14:27:00.148Z,18.30
2022-09-28T14:29:31.300Z,18.40
2022-09-28T14:31:59.011Z,18.40
2022-09-28T14:34:34.300Z,18.50
2022-09-28T14:37:21.032Z,18.50
2022-09-28T14:40:06.338Z,18.50
2022-09-28T14:42:32.858Z,18.60
2022-09-28T14:45:06.099Z,18.60
2022-09-28T14:47:37.698Z,18.50
2022-09-28T14:50:24.085Z,18.50
2022-09-28T14:52:51.456Z,18.60
2022-09-28T14:55:19.906Z,18.60
2022-09-28T14:57:52.134Z,18.60
2022-09-28T15:00:20.375Z,18.60
2022-09-28T15:02:48.950Z,18.70
2022-09-28T15:05:27.771Z,18.70
2022-09-28T15:07:55.378Z,18.80
2022-09-28T15:10:28.204Z,18.70
2022-09-28T15:16:30.251Z,18.70
2022-09-28T15:19:17.596Z,18.70
2022-09-28T15:21:47.686Z,18.80
2022-09-28T15:24:34.000Z,18.80
2022-09-28T15:27:01.752Z,18.80
2022-09-28T15:29:31.382Z,18.80
2022-09-28T15:31:58.510Z,18.80
2022-09-28T15:34:47.492Z,18.80
2022-09-28T15:37:15.618Z,18.80
2022-09-28T15:39:42.292Z,18.80
2022-09-28T15:42:08.746Z,18.80
2022-09-28T15:44:37.249Z,18.80
2022-09-28T15:47:14.089Z,18.80
2022-09-28T15:49:53.417Z,18.70
2022-09-28T15:52:42.887Z,18.70
2022-09-28T15:55:28.325Z,18.70
2022-09-28T15:58:06.921Z,18.70
2022-09-28T16:00:33.839Z,18.70
2022-09-28T16:03:01.876Z,18.70
2022-09-28T16:05:49.089Z,18.70
2022-09-28T16:08:24.852Z,18.70
2022-09-28T16:11:10.935Z,18.70
2022-09-28T16:14:06.943Z,18.60
2022-09-28T16:16:36.441Z,18.60
2022-09-28T16:19:03.596Z,18.60
2022-09-28T16:21:42.707Z,18.60
2022-09-28T16:24:19.315Z,18.60
2022-09-28T16:26:45.884Z,18.50
2022-09-28T16:29:25.732Z,18.50
2022-09-28T16:31:53.295Z,18.50
2022-09-28T16:34:23.535Z,18.50
2022-09-28T16:36:50.630Z,18.40
2022-09-28T16:39:17.911Z,18.40
2022-09-28T16:42:05.059Z,18.40
2022-09-28T16:44:35.977Z,18.40
2022-09-28T16:47:02.436Z,18.30
2022-09-28T16:49:29.666Z,18.30
2022-09-28T16:51:56.179Z,18.30
2022-09-28T16:54:42.348Z,18.30
2022-09-28T16:57:10.931Z,18.30
2022-09-28T16:59:40.389Z,18.20
2022-09-28T17:02:46.126Z,18.20
2022-09-28T17:05:07.504Z,18.10
2022-09-28T17:07:34.310Z,18.10
2022-09-28T17:10:00.727Z,18.10
2022-09-28T17:12:29.205Z,18.10
2022-09-28T17:14:55.682Z,18.00
2022-09-28T17:17:22.777Z,18.00
2022-09-28T17:19:49.291Z,18.00
2022-09-28T17:22:16.825Z,17.90
2022-09-28T17:24:45.517Z,17.90
2022-09-28T17:27:15.576Z,17.90
2022-09-28T17:29:42.010Z,17.80
2022-09-28T17:32:12.106Z,17.70
2022-09-28T17:34:38.574Z,17.70
2022-09-28T17:37:05.121Z,17.70
2022-09-28T17:39:31.789Z,17.70
2022-09-28T17:41:58.243Z,17.60
2022-09-28T17:44:24.717Z,17.60
2022-09-28T17:46:52.362Z,17.60
2022-09-28T17:49:19.365Z,17.60
2022-09-28T17:51:45.807Z,17.50
2022-09-28T17:54:13.662Z,17.50
2022-09-28T17:56:40.168Z,17.50
2022-09-28T17:59:07.864Z,17.50
2022-09-28T18:01:37.574Z,17.40
2022-09-28T18:04:04.997Z,17.40
2022-09-28T18:06:34.872Z,17.30
2022-09-28T18:09:03.166Z,17.30
2022-09-28T18:11:30.050Z,17.30
2022-09-28T18:13:56.508Z,17.30
2022-09-28T18:16:23.087Z,17.20
2022-09-28T18:18:54.007Z,17.20
2022-09-28T18:21:20.475Z,17.20
2022-09-28T18:23:46.916Z,17.10
2022-09-28T18:26:14.792Z,17.10
2022-09-28T18:28:41.545Z,17.10
2022-09-28T18:31:08.814Z,17.00
2022-09-28T18:33:35.489Z,17.00
2022-09-28T18:36:02.099Z,17.00
2022-09-28T18:38:28.639Z,16.90
2022-09-28T18:40:56.432Z,16.90
2022-09-28T18:43:23.319Z,16.90
2022-09-28T18:45:49.813Z,16.80
2022-09-28T18:48:16.288Z,16.80
2022-09-28T18:50:42.886Z,16.80
2022-09-28T18:53:15.090Z,16.80
2022-09-28T18:55:43.779Z,16.70
2022-09-28T18:58:11.507Z,16.70
2022-09-28T19:00:42.920Z,16.60
2022-09-28T19:03:11.297Z,16.60
2022-09-28T19:05:41.783Z,16.60
2022-09-28T19:08:08.243Z,16.60
2022-09-28T19:10:34.644Z,16.50
2022-09-28T19:13:01.124Z,16.50
2022-09-28T19:15:27.592Z,16.50
2022-09-28T19:17:54.199Z,16.40
2022-09-28T19:20:21.306Z,16.40
2022-09-28T19:22:50.744Z,16.40
2022-09-28T19:25:17.279Z,16.40
2022-09-28T19:27:43.770Z,16.30
2022-09-28T19:30:10.436Z,16.30
2022-09-28T19:32:37.156Z,16.30
2022-09-28T19:35:04.381Z,16.30
2022-09-28T19:37:33.548Z,16.30
2022-09-28T19:40:00.140Z,16.20
2022-09-28T19:42:26.948Z,16.20
2022-09-28T19:44:53.366Z,16.20
2022-09-28T19:47:21.709Z,16.20
2022-09-28T19:49:49.135Z,16.10
2022-09-28T19:52:16.641Z,16.10
2022-09-28T19:54:44.637Z,16.10
2022-09-28T19:57:16.087Z,16.10
2022-09-28T19:59:42.776Z,16.00
2022-09-28T20:02:10.257Z,16.00
2022-09-28T20:04:36.791Z,16.00
2022-09-28T20:07:03.693Z,16.00
2022-09-28T20:09:30.177Z,15.90
2022-09-28T20:11:57.049Z,15.90
2022-09-28T20:14:25.921Z,15.90
2022-09-28T20:16:54.743Z,15.90
2022-09-28T20:19:23.243Z,15.90
2022-09-28T20:21:49.791Z,15.90
2022-09-28T20:24:17.250Z,15.80
2022-09-28T20:26:44.474Z,15.80
2022-09-28T20:29:11.098Z,15.80
2022-09-28T20:31:38.014Z,15.80
2022-09-28T20:34:05.113Z,15.80
2022-09-28T20:36:40.223Z,15.70
2022-09-28T20:39:06.679Z,15.70
2022-09-28T20:41:36.687Z,15.70
2022-09-28T20:44:05.902Z,15.70
2022-09-28T20:46:43.803Z,15.70
2022-09-28T20:49:10.342Z,15.70
2022-09-28T20:51:40.043Z,15.60
2022-09-28T20:54:06.591Z,15.70
2022-09-28T20:56:37.777Z,15.60
2022-09-28T20:59:05.052Z,15.60
2022-09-28T21:01:31.913Z,15.60
2022-09-28T21:04:02.460Z,15.60
2022-09-28T21:06:30.381Z,15.60
2022-09-28T21:08:57.045Z,15.50
2022-09-28T21:11:24.020Z,15.50
2022-09-28T21:13:54.657Z,15.50
2022-09-28T21:16:21.291Z,15.50
2022-09-28T21:18:48.017Z,15.50
2022-09-28T21:21:15.695Z,15.50
2022-09-28T21:23:45.050Z,15.50
2022-09-28T21:26:24.773Z,15.40
2022-09-28T21:28:51.991Z,15.40
2022-09-28T21:31:20.560Z,15.40
2022-09-28T21:33:48.294Z,15.40
2022-09-28T21:36:14.769Z,15.30
2022-09-28T21:38:41.303Z,15.40
2022-09-28T21:41:08.971Z,15.30
2022-09-28T21:43:35.495Z,15.30
2022-09-28T21:46:02.001Z,15.30
2022-09-28T21:48:28.927Z,15.30
2022-09-28T21:50:59.815Z,15.30
2022-09-28T21:53:28.037Z,15.30
2022-09-28T21:55:54.895Z,15.20
2022-09-28T21:58:23.231Z,15.20
2022-09-28T22:00:58.287Z,15.20
2022-09-28T22:03:25.800Z,15.20
2022-09-28T22:05:52.456Z,15.20
2022-09-28T22:08:19.664Z,15.20
2022-09-28T22:10:46.810Z,15.10
2022-09-28T22:13:13.203Z,15.10
2022-09-28T22:15:39.670Z,15.10
2022-09-28T22:18:06.243Z,15.10
2022-09-28T22:20:32.651Z,15.10
2022-09-28T22:22:59.173Z,15.10
2022-09-28T22:25:25.574Z,15.10
2022-09-28T22:27:52.005Z,15.00
2022-09-28T22:30:18.591Z,15.00
2022-09-28T22:32:45.049Z,15.00
2022-09-28T22:35:11.607Z,15.00
2022-09-28T22:37:38.341Z,15.00
2022-09-28T22:40:05.234Z,14.90
2022-09-28T22:42:32.635Z,14.90
2022-09-28T22:44:59.239Z,14.90
2022-09-28T22:47:25.672Z,14.90
2022-09-28T22:49:52.142Z,14.90
2022-09-28T22:52:18.680Z,14.90
2022-09-28T22:54:46.179Z,14.90
2022-09-28T22:57:12.896Z,14.90
2022-09-28T22:59:39.349Z,14.80
2022-09-28T23:02:05.950Z,14.80
2022-09-28T23:04:32.412Z,14.80
2022-09-28T23:06:58.898Z,14.80
2022-09-28T23:09:25.355Z,14.80
2022-09-28T23:11:51.808Z,14.80
2022-09-28T23:14:18.260Z,14.80
2022-09-28T23:16:44.707Z,14.80
2022-09-28T23:19:11.214Z,14.70
2022-09-28T23:21:38.052Z,14.70
2022-09-28T23:24:04.498Z,14.70
2022-09-28T23:26:32.222Z,14.70
2022-09-28T23:28:59.528Z,14.70
2022-09-28T23:31:28.130Z,14.70
2022-09-28T23:33:58.826Z,14.70
2022-09-28T23:36:25.615Z,14.60
2022-09-28T23:38:52.100Z,14.60
2022-09-28T23:41:20.640Z,14.60
2022-09-28T23:43:47.095Z,14.60
2022-09-28T23:46:17.253Z,14.60
2022-09-28T23:48:46.865Z,14.60
2022-09-28T23:51:13.288Z,14.60
2022-09-28T23:53:39.906Z,14.60
2022-09-28T23:56:06.395Z,14.50
2022-09-28T23:58:32.806Z,14.50
